createdAt,value
2022-08-05T00:00:50.303Z,58.43
2022-08-05T00:01:48.497Z,58.33
2022-08-05T00:02:50.610Z,58.33
2022-08-05T00:03:48.183Z,58.33
2022-08-05T00:07:58.864Z,58.23
2022-08-05T00:08:34.607Z,58.33
2022-08-05T00:09:23.269Z,58.33
2022-08-05T00:10:26.956Z,58.43
2022-08-05T00:11:35.026Z,58.53
2022-08-05T00:12:23.412Z,58.62
2022-08-05T00:13:38.405Z,58.53
2022-08-05T00:14:29.164Z,58.62
2022-08-05T00:15:55.476Z,58.53
2022-08-05T00:16:35.596Z,58.62
2022-08-05T00:17:23.817Z,58.62
2022-08-05T00:18:23.903Z,58.62
2022-08-05T00:19:24.975Z,58.62
2022-08-05T00:20:28.966Z,58.53
2022-08-05T00:21:24.183Z,58.62
2022-08-05T00:22:28.361Z,58.62
2022-08-05T00:23:44.565Z,58.53
2022-08-05T00:24:30.936Z,58.53
2022-08-05T00:25:24.497Z,58.53
2022-08-05T00:26:24.595Z,58.43
2022-08-05T00:27:35.659Z,58.45
2022-08-05T00:28:29.689Z,58.45
2022-08-05T00:29:25.359Z,58.45
2022-08-05T00:30:29.276Z,58.45
2022-08-05T00:31:53.806Z,58.45
2022-08-05T00:32:25.773Z,58.56
2022-08-05T00:34:56.731Z,58.56
2022-08-05T00:35:11.522Z,58.65
2022-08-05T00:35:25.274Z,58.65
2022-08-05T00:37:11.268Z,58.65
2022-08-05T00:37:25.754Z,58.65
2022-08-05T00:38:28.706Z,58.65
2022-08-05T00:39:25.691Z,58.65
2022-08-05T00:40:28.386Z,58.75
2022-08-05T00:41:25.780Z,58.75
2022-08-05T00:42:32.066Z,58.56
2022-08-05T00:43:25.976Z,58.56
2022-08-05T00:44:30.626Z,58.56
2022-08-05T00:45:37.797Z,58.56
2022-08-05T00:46:42.449Z,58.56
2022-08-05T00:47:26.409Z,58.56
2022-08-05T00:48:27.448Z,58.56
2022-08-05T00:49:26.472Z,58.56
2022-08-05T00:50:26.571Z,58.65
2022-08-05T00:51:51.840Z,58.65
2022-08-05T00:52:28.705Z,58.78
2022-08-05T00:54:01.110Z,58.88
2022-08-05T00:54:28.199Z,58.98
2022-08-05T00:55:42.468Z,58.98
2022-08-05T00:56:27.049Z,58.98
2022-08-05T00:57:31.754Z,59.08
2022-08-05T00:58:27.718Z,59.18
2022-08-05T00:59:27.290Z,59.28
2022-08-05T01:00:27.629Z,59.28
2022-08-05T01:01:42.540Z,59.28
2022-08-05T01:02:27.533Z,59.18
2022-08-05T01:03:31.110Z,59.08
2022-08-05T01:04:29.904Z,59.18
2022-08-05T01:05:27.907Z,59.18
2022-08-05T01:06:32.511Z,59.18
2022-08-05T01:07:28.027Z,59.28
2022-08-05T01:08:39.950Z,59.28
2022-08-05T01:09:30.463Z,59.18
2022-08-05T01:10:28.235Z,59.18
2022-08-05T01:11:33.474Z,59.28
2022-08-05T01:12:29.582Z,59.38
2022-08-05T01:13:58.684Z,59.38
2022-08-05T01:14:28.731Z,59.18
2022-08-05T01:15:35.335Z,58.98
2022-08-05T01:16:28.697Z,58.98
2022-08-05T01:17:28.787Z,58.88
2022-08-05T01:18:28.903Z,58.78
2022-08-05T01:19:36.831Z,58.71
2022-08-05T01:20:29.065Z,58.51
2022-08-05T01:21:38.333Z,58.61
2022-08-05T01:22:29.176Z,58.71
2022-08-05T01:23:34.851Z,58.81
2022-08-05T01:24:30.162Z,59.01
2022-08-05T01:25:41.124Z,59.08
2022-08-05T01:26:29.516Z,59.08
2022-08-05T01:27:29.592Z,59.08
2022-08-05T01:28:29.904Z,59.08
2022-08-05T01:29:30.711Z,59.18
2022-08-05T01:30:33.509Z,59.18
2022-08-05T01:31:29.955Z,59.08
2022-08-05T01:32:30.039Z,59.08
2022-08-05T01:33:35.157Z,58.98
2022-08-05T01:34:30.204Z,59.08
2022-08-05T01:35:50.755Z,59.18
2022-08-05T01:36:30.391Z,59.18
2022-08-05T01:37:30.963Z,59.18
2022-08-05T01:38:30.590Z,59.18
2022-08-05T01:39:36.898Z,59.18
2022-08-05T01:40:30.736Z,59.08
2022-08-05T01:41:30.781Z,59.08
2022-08-05T01:42:30.879Z,59.18
2022-08-05T01:43:31.008Z,59.18
2022-08-05T01:44:34.382Z,59.28
2022-08-05T01:45:34.735Z,59.38
2022-08-05T01:46:42.376Z,59.38
2022-08-05T01:47:38.716Z,59.48
2022-08-05T01:48:31.357Z,59.51
2022-08-05T01:50:01.612Z,59.48
2022-08-05T01:50:31.532Z,59.58
2022-08-05T01:51:31.570Z,59.70
2022-08-05T01:52:31.646Z,59.81
2022-08-05T01:53:54.566Z,59.81
2022-08-05T01:54:31.830Z,59.81
2022-08-05T01:55:31.937Z,59.81
2022-08-05T01:58:11.650Z,59.81
2022-08-05T01:58:45.752Z,59.91
2022-08-05T01:58:51.138Z,60.00
2022-08-05T01:59:50.760Z,60.00
2022-08-05T02:00:50.850Z,60.00
2022-08-05T02:01:50.990Z,60.00
2022-08-05T02:02:53.649Z,59.91
2022-08-05T02:03:51.080Z,59.91
2022-08-05T02:04:51.178Z,59.81
2022-08-05T02:05:51.297Z,59.70
2022-08-05T02:06:51.370Z,59.61
2022-08-05T02:08:00.297Z,59.70
2022-08-05T02:08:58.457Z,59.81
2022-08-05T02:09:51.718Z,59.91
2022-08-05T02:10:51.725Z,60.11
2022-08-05T02:11:52.626Z,60.13
2022-08-05T02:12:51.836Z,60.13
2022-08-05T02:13:53.865Z,60.13
2022-08-05T02:14:51.988Z,60.13
2022-08-05T02:15:52.082Z,60.13
2022-08-05T02:16:53.278Z,59.83
2022-08-05T02:18:33.297Z,59.74
2022-08-05T02:18:52.326Z,59.64
2022-08-05T02:19:52.351Z,59.74
2022-08-05T02:20:52.445Z,59.83
2022-08-05T02:21:52.548Z,59.94
2022-08-05T02:22:52.625Z,60.03
2022-08-05T02:23:52.713Z,60.24
2022-08-05T02:24:52.809Z,60.33
2022-08-05T02:25:52.906Z,60.53
2022-08-05T02:26:54.547Z,60.53
2022-08-05T02:27:59.519Z,60.43
2022-08-05T02:28:53.192Z,60.53
2022-08-05T02:29:59.828Z,60.53
2022-08-05T02:30:54.787Z,60.53
2022-08-05T02:31:53.393Z,60.60
2022-08-05T02:32:53.462Z,60.63
2022-08-05T02:33:57.745Z,60.60
2022-08-05T02:34:54.987Z,60.60
2022-08-05T02:35:58.881Z,60.60
2022-08-05T02:36:53.801Z,60.60
2022-08-05T02:37:54.257Z,60.70
2022-08-05T02:38:54.091Z,60.60
2022-08-05T02:39:54.142Z,60.70
2022-08-05T02:40:54.237Z,60.70
2022-08-05T02:42:00.673Z,60.80
2022-08-05T02:42:54.380Z,60.90
2022-08-05T02:44:06.112Z,60.80
2022-08-05T02:44:54.460Z,60.90
2022-08-05T02:45:54.505Z,61.00
2022-08-05T02:47:00.435Z,61.00
2022-08-05T02:48:06.639Z,61.10
2022-08-05T02:48:54.735Z,61.10
2022-08-05T02:49:54.814Z,61.10
2022-08-05T02:50:54.908Z,61.03
2022-08-05T02:52:02.854Z,61.03
2022-08-05T02:52:55.061Z,60.93
2022-08-05T02:53:55.109Z,60.83
2022-08-05T02:54:55.203Z,60.83
2022-08-05T02:55:59.915Z,60.93
2022-08-05T02:56:55.372Z,61.13
2022-08-05T02:58:09.882Z,61.13
2022-08-05T02:58:55.531Z,61.23
2022-08-05T02:59:55.625Z,61.33
2022-08-05T03:00:55.705Z,61.33
2022-08-05T03:01:55.779Z,61.33
2022-08-05T03:02:55.874Z,61.33
2022-08-05T03:04:03.181Z,61.13
2022-08-05T03:04:55.988Z,61.16
2022-08-05T03:06:55.333Z,61.16
2022-08-05T03:07:03.380Z,61.25
2022-08-05T03:08:07.131Z,61.36
2022-08-05T03:08:56.308Z,61.46
2022-08-05T03:09:56.382Z,61.46
2022-08-05T03:11:53.019Z,61.46
2022-08-05T03:12:00.385Z,61.46
2022-08-05T03:14:02.657Z,61.46
2022-08-05T03:14:59.068Z,61.46
2022-08-05T03:15:59.049Z,61.36
2022-08-05T03:16:59.234Z,61.36
2022-08-05T03:17:59.514Z,61.36
2022-08-05T03:18:59.288Z,61.36
2022-08-05T03:19:59.363Z,61.36
2022-08-05T03:20:59.451Z,61.33
2022-08-05T03:21:59.484Z,61.43
2022-08-05T03:22:59.567Z,61.43
2022-08-05T03:23:59.652Z,61.43
2022-08-05T03:25:02.312Z,61.53
2022-08-05T03:26:04.762Z,61.53
2022-08-05T03:26:59.979Z,61.53
2022-08-05T03:28:00.663Z,61.63
2022-08-05T03:29:00.100Z,61.63
2022-08-05T03:30:08.237Z,61.63
2022-08-05T03:31:00.231Z,61.63
2022-08-05T03:32:00.734Z,61.55
2022-08-05T03:33:00.872Z,61.55
2022-08-05T03:34:00.486Z,61.55
2022-08-05T03:35:00.664Z,61.55
2022-08-05T03:36:00.642Z,61.36
2022-08-05T03:37:00.714Z,61.25
2022-08-05T03:38:00.789Z,61.16
2022-08-05T03:39:00.896Z,61.16
2022-08-05T03:40:03.987Z,61.25
2022-08-05T03:41:08.431Z,61.25
2022-08-05T03:42:01.152Z,61.16
2022-08-05T03:43:01.511Z,61.16
2022-08-05T03:44:11.398Z,61.25
2022-08-05T03:45:01.733Z,61.25
2022-08-05T03:46:01.491Z,61.25
2022-08-05T03:47:03.529Z,61.16
2022-08-05T03:48:01.646Z,61.16
2022-08-05T03:49:01.891Z,61.16
2022-08-05T03:50:01.811Z,61.16
2022-08-05T03:52:37.321Z,61.16
2022-08-05T03:56:00.960Z,61.06
2022-08-05T03:56:27.802Z,60.96
2022-08-05T03:56:36.338Z,61.06
2022-08-05T03:57:41.521Z,61.06
2022-08-05T03:58:29.036Z,61.06
2022-08-05T03:59:25.497Z,60.96
2022-08-05T04:00:25.580Z,61.06
2022-08-05T04:01:25.753Z,61.06
2022-08-05T04:02:38.415Z,61.06
2022-08-05T04:03:28.422Z,61.06
2022-08-05T04:04:26.522Z,60.96
2022-08-05T04:05:25.949Z,60.86
2022-08-05T04:06:26.081Z,60.86
2022-08-05T04:07:26.112Z,60.86
2022-08-05T04:08:34.892Z,60.86
2022-08-05T04:09:26.807Z,60.86
2022-08-05T04:10:27.778Z,60.86
2022-08-05T04:11:42.553Z,60.86
2022-08-05T04:12:26.546Z,60.86
2022-08-05T04:13:27.715Z,60.86
2022-08-05T04:14:30.587Z,60.96
2022-08-05T04:15:27.960Z,60.96
2022-08-05T04:16:32.492Z,61.06
2022-08-05T04:17:55.483Z,60.86
2022-08-05T04:18:27.073Z,60.86
2022-08-05T04:19:27.126Z,60.86
2022-08-05T04:20:27.210Z,60.86
2022-08-05T04:22:08.319Z,60.86
2022-08-05T04:22:27.386Z,60.86
2022-08-05T04:23:57.125Z,60.96
2022-08-05T04:24:27.681Z,60.96
2022-08-05T04:25:58.027Z,60.86
2022-08-05T04:26:32.228Z,60.76
2022-08-05T04:27:33.039Z,60.76
2022-08-05T04:28:30.556Z,60.66
2022-08-05T04:29:27.897Z,60.66
2022-08-05T04:30:27.971Z,60.86
2022-08-05T04:31:38.445Z,60.86
2022-08-05T04:32:31.029Z,60.86
2022-08-05T04:33:54.510Z,60.86
2022-08-05T04:34:32.691Z,60.96
2022-08-05T04:36:11.244Z,60.96
2022-08-05T04:36:45.812Z,60.96
2022-08-05T04:38:00.996Z,61.03
2022-08-05T04:38:28.639Z,61.03
2022-08-05T04:39:28.736Z,61.13
2022-08-05T04:40:28.820Z,61.13
2022-08-05T04:41:36.842Z,60.93
2022-08-05T04:42:28.994Z,60.93
2022-08-05T04:43:29.067Z,60.83
2022-08-05T04:44:30.625Z,60.83
2022-08-05T04:45:47.812Z,60.83
2022-08-05T04:46:29.334Z,60.73
2022-08-05T04:47:29.409Z,60.73
2022-08-05T04:48:29.494Z,60.63
2022-08-05T04:49:39.053Z,60.53
2022-08-05T04:50:37.434Z,60.63
2022-08-05T04:51:30.595Z,60.76
2022-08-05T04:52:33.270Z,60.66
2022-08-05T04:53:33.351Z,60.76
2022-08-05T04:54:29.959Z,60.56
2022-08-05T04:56:14.625Z,60.26
2022-08-05T04:56:38.660Z,60.26
2022-08-05T04:57:30.187Z,60.26
2022-08-05T04:58:30.271Z,60.06
2022-08-05T04:59:38.990Z,59.86
2022-08-05T05:00:30.460Z,59.86
2022-08-05T05:01:33.576Z,59.77
2022-08-05T05:02:37.314Z,59.86
2022-08-05T05:03:32.552Z,59.96
2022-08-05T05:04:30.800Z,60.16
2022-08-05T05:05:30.832Z,60.36
2022-08-05T05:06:38.666Z,60.76
2022-08-05T05:07:32.144Z,60.46
2022-08-05T05:08:31.077Z,60.46
2022-08-05T05:09:31.231Z,60.36
2022-08-05T05:10:33.235Z,60.46
2022-08-05T05:11:52.788Z,60.36
2022-08-05T05:12:31.394Z,60.26
2022-08-05T05:13:32.344Z,60.36
2022-08-05T05:14:32.309Z,60.56
2022-08-05T05:15:57.577Z,60.66
2022-08-05T05:16:31.768Z,60.96
2022-08-05T05:17:56.278Z,60.96
2022-08-05T05:18:34.113Z,61.06
2022-08-05T05:19:37.013Z,61.06
2022-08-05T05:20:32.095Z,61.06
2022-08-05T05:21:33.135Z,60.66
2022-08-05T05:22:32.258Z,60.56
2022-08-05T05:24:01.863Z,60.46
2022-08-05T05:24:56.182Z,60.36
2022-08-05T05:25:40.519Z,60.46
2022-08-05T05:26:33.111Z,60.46
2022-08-05T05:27:45.122Z,60.43
2022-08-05T05:28:35.182Z,60.63
2022-08-05T05:30:03.638Z,60.73
2022-08-05T05:30:33.603Z,60.93
2022-08-05T05:32:12.689Z,61.23
2022-08-05T05:33:16.868Z,61.33
2022-08-05T05:34:12.687Z,61.63
2022-08-05T05:35:12.811Z,61.63
2022-08-05T05:36:12.839Z,61.63
2022-08-05T05:37:12.912Z,61.63
2022-08-05T05:38:14.331Z,61.72
2022-08-05T05:39:13.143Z,61.83
2022-08-05T05:40:13.161Z,61.93
2022-08-05T05:41:13.220Z,62.02
2022-08-05T05:42:13.280Z,62.02
2022-08-05T05:43:13.385Z,62.23
2022-08-05T05:44:36.045Z,62.23
2022-08-05T05:45:16.229Z,62.42
2022-08-05T05:46:17.638Z,62.72
2022-08-05T05:47:22.204Z,63.12
2022-08-05T05:48:16.092Z,63.22
2022-08-05T05:49:22.793Z,63.22
2022-08-05T05:50:16.329Z,63.32
2022-08-05T05:51:15.699Z,63.42
2022-08-05T05:52:25.499Z,63.52
2022-08-05T05:53:21.328Z,63.52
2022-08-05T05:54:14.230Z,63.72
2022-08-05T05:55:14.345Z,63.92
2022-08-05T05:56:14.405Z,64.12
2022-08-05T05:57:19.252Z,64.31
2022-08-05T05:58:14.563Z,64.42
2022-08-05T05:59:14.632Z,64.31
2022-08-05T06:00:14.745Z,64.31
2022-08-05T06:01:15.237Z,64.15
2022-08-05T06:02:14.930Z,63.55
2022-08-05T06:03:40.182Z,63.15
2022-08-05T06:04:15.150Z,62.95
2022-08-05T06:05:16.729Z,63.05
2022-08-05T06:06:15.200Z,63.15
2022-08-05T06:07:15.262Z,63.15
2022-08-05T06:08:15.336Z,63.15
2022-08-05T06:09:16.696Z,63.05
2022-08-05T06:10:15.502Z,62.95
2022-08-05T06:11:15.576Z,62.95
2022-08-05T06:12:15.689Z,63.05
2022-08-05T06:13:15.728Z,63.05
2022-08-05T06:14:15.803Z,63.02
2022-08-05T06:15:23.714Z,62.92
2022-08-05T06:16:29.110Z,62.92
2022-08-05T06:17:21.964Z,62.82
2022-08-05T06:18:16.119Z,62.82
2022-08-05T06:19:32.980Z,62.82
2022-08-05T06:20:18.905Z,62.72
2022-08-05T06:21:18.445Z,62.72
2022-08-05T06:22:16.484Z,62.72
2022-08-05T06:23:16.553Z,62.82
2022-08-05T06:24:16.617Z,62.82
2022-08-05T06:25:59.207Z,62.82
2022-08-05T06:26:21.593Z,62.82
2022-08-05T06:28:09.240Z,62.82
2022-08-05T06:28:21.417Z,62.82
2022-08-05T06:29:25.410Z,62.89
2022-08-05T06:30:20.223Z,62.99
2022-08-05T06:31:17.885Z,62.99
2022-08-05T06:32:26.066Z,63.29
2022-08-05T06:33:19.323Z,63.59
2022-08-05T06:34:17.406Z,63.79
2022-08-05T06:36:03.702Z,63.89
2022-08-05T06:36:17.591Z,63.98
2022-08-05T06:37:17.682Z,64.28
2022-08-05T06:38:17.761Z,64.39
2022-08-05T06:39:17.888Z,64.48
2022-08-05T06:40:21.427Z,64.48
2022-08-05T06:41:18.055Z,64.48
2022-08-05T06:42:18.111Z,64.39
2022-08-05T06:43:59.441Z,64.39
2022-08-05T06:44:18.247Z,64.28
2022-08-05T06:45:21.310Z,64.28
2022-08-05T06:46:18.459Z,64.28
2022-08-05T06:47:29.918Z,64.28
2022-08-05T06:48:52.945Z,64.39
2022-08-05T06:49:18.804Z,64.39
2022-08-05T06:50:18.788Z,64.39
2022-08-05T06:51:23.866Z,64.28
2022-08-05T06:52:37.174Z,64.39
2022-08-05T06:53:22.322Z,64.48
2022-08-05T06:54:19.389Z,64.69
2022-08-05T06:55:19.191Z,64.69
2022-08-05T06:56:26.442Z,64.69
2022-08-05T06:57:57.318Z,64.69
2022-08-05T06:58:29.893Z,64.69
2022-08-05T06:59:19.496Z,64.58
2022-08-05T07:00:24.464Z,64.58
2022-08-05T07:01:20.968Z,64.58
2022-08-05T07:02:22.729Z,64.69
2022-08-05T07:03:19.831Z,64.58
2022-08-05T07:04:19.911Z,64.45
2022-08-05T07:05:22.309Z,64.45
2022-08-05T07:06:20.627Z,64.45
2022-08-05T07:07:24.082Z,64.36
2022-08-05T07:08:20.223Z,64.45
2022-08-05T07:09:20.323Z,64.45
2022-08-05T07:10:20.435Z,64.36
2022-08-05T07:11:22.282Z,64.36
2022-08-05T07:12:20.570Z,64.36
2022-08-05T07:13:59.314Z,64.25
2022-08-05T07:14:29.538Z,64.25
2022-08-05T07:15:34.549Z,64.25
2022-08-05T07:17:57.373Z,64.25
2022-08-05T07:18:09.316Z,64.36
2022-08-05T07:18:24.170Z,64.36
2022-08-05T07:19:44.375Z,64.36
2022-08-05T07:20:37.282Z,64.45
2022-08-05T07:21:25.782Z,64.45
2022-08-05T07:22:21.472Z,64.55
2022-08-05T07:23:26.077Z,64.62
2022-08-05T07:24:21.572Z,64.52
2022-08-05T07:25:54.970Z,64.52
2022-08-05T07:26:24.953Z,64.62
2022-08-05T07:27:21.998Z,64.82
2022-08-05T07:28:21.867Z,65.12
2022-08-05T07:30:22.375Z,65.52
2022-08-05T07:30:33.733Z,65.72
2022-08-05T07:31:40.929Z,65.72
2022-08-05T07:32:26.034Z,65.72
2022-08-05T07:33:36.420Z,65.91
2022-08-05T07:34:26.236Z,66.01
2022-08-05T07:36:01.558Z,65.81
2022-08-05T07:36:22.550Z,65.72
2022-08-05T07:37:22.800Z,65.61
2022-08-05T07:38:34.099Z,65.72
2022-08-05T07:39:37.007Z,65.81
2022-08-05T07:40:31.529Z,65.81
2022-08-05T07:42:07.807Z,66.01
2022-08-05T07:42:33.598Z,66.31
2022-08-05T07:43:23.046Z,66.81
2022-08-05T07:44:23.132Z,66.41
2022-08-05T07:45:44.070Z,66.31
2022-08-05T07:46:25.420Z,66.21
2022-08-05T07:47:25.848Z,66.21
2022-08-05T07:49:02.709Z,66.21
2022-08-05T07:49:23.590Z,66.11
2022-08-05T07:50:28.806Z,65.98
2022-08-05T07:51:37.309Z,65.98
2022-08-05T07:52:23.999Z,65.98
2022-08-05T07:53:23.866Z,65.78
2022-08-05T07:54:26.429Z,65.19
2022-08-05T07:56:04.877Z,64.69
2022-08-05T07:57:01.271Z,64.19
2022-08-05T07:57:51.235Z,64.09
2022-08-05T07:58:57.374Z,63.40
2022-08-05T07:59:38.656Z,62.90
2022-08-05T08:00:24.463Z,62.50
2022-08-05T08:01:24.568Z,62.18
2022-08-05T08:02:26.739Z,61.78
2022-08-05T08:03:24.699Z,61.48
2022-08-05T08:04:38.132Z,60.69
2022-08-05T08:05:26.364Z,60.58
2022-08-05T08:06:28.202Z,60.58
2022-08-05T08:07:25.349Z,60.39
2022-08-05T08:08:26.042Z,60.16
2022-08-05T08:09:25.155Z,59.66
2022-08-05T08:10:25.211Z,58.97
2022-08-05T08:11:27.385Z,58.77
2022-08-05T08:12:37.517Z,58.77
2022-08-05T08:13:28.842Z,58.27
2022-08-05T08:14:25.558Z,58.27
2022-08-05T08:15:37.316Z,58.57
2022-08-05T08:16:51.214Z,58.84
2022-08-05T08:17:27.918Z,58.94
2022-08-05T08:18:25.896Z,59.04
2022-08-05T08:20:43.012Z,59.04
2022-08-05T08:21:03.001Z,58.74
2022-08-05T08:21:26.194Z,58.84
2022-08-05T08:22:27.009Z,59.04
2022-08-05T08:24:01.004Z,59.14
2022-08-05T08:24:41.501Z,59.23
2022-08-05T08:26:00.311Z,59.44
2022-08-05T08:26:29.898Z,59.34
2022-08-05T08:27:26.735Z,59.44
2022-08-05T08:28:35.618Z,59.53
2022-08-05T08:30:06.675Z,59.63
2022-08-05T08:30:47.288Z,59.83
2022-08-05T08:31:27.053Z,60.03
2022-08-05T08:32:28.041Z,60.13
2022-08-05T08:33:27.309Z,60.43
2022-08-05T08:34:30.211Z,60.80
2022-08-05T08:35:27.233Z,60.70
2022-08-05T08:36:40.247Z,60.60
2022-08-05T08:37:27.863Z,60.10
2022-08-05T08:38:36.129Z,60.20
2022-08-05T08:39:27.670Z,60.10
2022-08-05T08:40:27.643Z,59.70
2022-08-05T08:41:52.497Z,59.91
2022-08-05T08:42:34.140Z,59.70
2022-08-05T08:45:23.974Z,59.70
2022-08-05T08:45:30.788Z,59.70
2022-08-05T08:45:36.218Z,59.41
2022-08-05T08:46:36.359Z,59.11
2022-08-05T08:48:06.002Z,59.31
2022-08-05T08:49:02.903Z,59.51
2022-08-05T08:50:22.442Z,59.61
2022-08-05T08:51:03.650Z,59.70
2022-08-05T08:52:03.248Z,60.10
2022-08-05T08:52:36.760Z,60.60
2022-08-05T08:53:36.837Z,60.60
2022-08-05T08:54:36.930Z,60.60
2022-08-05T08:56:04.929Z,60.40
2022-08-05T08:56:37.154Z,60.10
2022-08-05T08:57:48.182Z,60.10
2022-08-05T08:58:47.661Z,60.20
2022-08-05T08:59:37.418Z,60.80
2022-08-05T09:00:37.513Z,60.89
2022-08-05T09:01:37.579Z,60.70
2022-08-05T09:02:37.645Z,60.50
2022-08-05T09:03:40.401Z,60.20
2022-08-05T09:04:58.598Z,60.10
2022-08-05T09:05:38.209Z,59.91
2022-08-05T09:06:37.992Z,59.80
2022-08-05T09:07:40.123Z,59.61
2022-08-05T09:08:40.305Z,59.41
2022-08-05T09:09:38.184Z,59.80
2022-08-05T09:10:38.265Z,59.91
2022-08-05T09:11:51.580Z,60.00
2022-08-05T09:12:38.382Z,60.20
2022-08-05T09:14:01.068Z,60.30
2022-08-05T09:15:05.609Z,60.50
2022-08-05T09:15:38.640Z,60.30
2022-08-05T09:16:38.744Z,60.20
2022-08-05T09:17:43.144Z,60.00
2022-08-05T09:18:42.798Z,59.80
2022-08-05T09:19:55.034Z,60.20
2022-08-05T09:20:39.046Z,59.91
2022-08-05T09:22:21.829Z,59.70
2022-08-05T09:22:39.649Z,59.80
2022-08-05T09:23:43.590Z,59.80
2022-08-05T09:24:39.382Z,59.80
2022-08-05T09:26:01.831Z,59.91
2022-08-05T09:26:39.581Z,59.91
2022-08-05T09:28:04.703Z,59.91
2022-08-05T09:28:39.767Z,60.10
2022-08-05T09:29:47.676Z,60.60
2022-08-05T09:30:40.765Z,60.40
2022-08-05T09:32:41.580Z,60.20
2022-08-05T09:32:53.546Z,60.20
2022-08-05T09:33:40.098Z,60.10
2022-08-05T09:34:40.170Z,60.00
2022-08-05T09:35:40.302Z,60.00
2022-08-05T09:36:54.402Z,60.10
2022-08-05T09:38:16.773Z,60.10
2022-08-05T09:38:40.522Z,59.91
2022-08-05T09:39:45.057Z,59.80
2022-08-05T09:40:40.656Z,59.70
2022-08-05T09:41:40.809Z,59.80
2022-08-05T09:42:40.838Z,59.80
2022-08-05T09:43:42.178Z,60.00
2022-08-05T09:44:40.988Z,60.00
2022-08-05T09:46:06.357Z,60.00
2022-08-05T09:46:51.831Z,60.20
2022-08-05T09:47:55.248Z,60.30
2022-08-05T09:48:41.342Z,60.30
2022-08-05T09:50:01.610Z,60.43
2022-08-05T09:50:44.039Z,60.33
2022-08-05T09:51:41.617Z,60.43
2022-08-05T09:52:45.173Z,60.53
2022-08-05T09:53:53.853Z,60.43
2022-08-05T09:54:41.808Z,60.53
2022-08-05T09:55:56.142Z,60.72
2022-08-05T09:56:42.024Z,60.93
2022-08-05T09:57:43.238Z,60.93
2022-08-05T09:58:42.452Z,61.02
2022-08-05T09:59:42.243Z,61.12
2022-08-05T10:00:42.341Z,61.29
2022-08-05T10:01:45.798Z,61.42
2022-08-05T10:02:42.550Z,61.29
2022-08-05T10:03:58.529Z,61.29
2022-08-05T10:04:42.667Z,61.39
2022-08-05T10:05:42.758Z,61.59
2022-08-05T10:06:54.854Z,61.59
2022-08-05T10:08:10.915Z,61.49
2022-08-05T10:08:43.040Z,61.29
2022-08-05T10:09:45.105Z,60.89
2022-08-05T10:10:43.166Z,60.89
2022-08-05T10:11:43.214Z,60.89
2022-08-05T10:12:49.186Z,60.80
2022-08-05T10:13:47.436Z,60.70
2022-08-05T10:14:43.436Z,60.70
2022-08-05T10:15:43.551Z,60.89
2022-08-05T10:16:52.414Z,61.10
2022-08-05T10:17:54.453Z,61.19
2022-08-05T10:18:43.788Z,61.10
2022-08-05T10:20:03.148Z,60.99
2022-08-05T10:20:44.065Z,60.99
2022-08-05T10:21:43.990Z,60.99
2022-08-05T10:22:50.968Z,61.19
2022-08-05T10:23:58.865Z,61.19
2022-08-05T10:24:46.032Z,61.10
2022-08-05T10:25:44.302Z,61.10
2022-08-05T10:26:51.474Z,60.99
2022-08-05T10:28:09.496Z,61.10
2022-08-05T10:28:44.922Z,61.10
2022-08-05T10:30:41.155Z,61.19
2022-08-05T10:33:01.273Z,61.29
2022-08-05T10:33:09.338Z,61.59
2022-08-05T10:34:07.868Z,61.39
2022-08-05T10:35:04.526Z,61.19
2022-08-05T10:36:04.600Z,61.29
2022-08-05T10:37:04.703Z,61.19
2022-08-05T10:38:04.735Z,61.19
2022-08-05T10:39:05.321Z,61.19
2022-08-05T10:40:17.904Z,61.19
2022-08-05T10:41:05.087Z,61.29
2022-08-05T10:42:05.105Z,61.39
2022-08-05T10:43:05.197Z,61.39
2022-08-05T10:44:05.654Z,61.39
2022-08-05T10:45:21.466Z,61.29
2022-08-05T10:46:06.292Z,61.10
2022-08-05T10:47:05.512Z,60.99
2022-08-05T10:48:30.071Z,60.89
2022-08-05T10:49:10.103Z,60.89
2022-08-05T10:50:31.961Z,60.89
2022-08-05T10:51:05.851Z,60.89
2022-08-05T10:52:10.571Z,61.10
2022-08-05T10:53:06.018Z,61.49
2022-08-05T10:54:28.694Z,61.79
2022-08-05T10:55:06.190Z,61.56
2022-08-05T10:56:21.495Z,61.26
2022-08-05T10:57:06.364Z,60.96
2022-08-05T10:58:06.424Z,60.77
2022-08-05T10:59:12.818Z,60.67
2022-08-05T11:00:18.202Z,60.57
2022-08-05T11:01:06.692Z,60.47
2022-08-05T11:02:06.838Z,60.77
2022-08-05T11:03:24.625Z,60.67
2022-08-05T11:04:07.041Z,60.57
2022-08-05T11:05:07.001Z,60.47
2022-08-05T11:06:08.736Z,60.47
2022-08-05T11:07:07.169Z,60.57
2022-08-05T11:08:33.770Z,60.77
2022-08-05T11:09:07.363Z,61.16
2022-08-05T11:10:10.017Z,61.26
2022-08-05T11:11:14.593Z,61.07
2022-08-05T11:12:07.592Z,60.77
2022-08-05T11:13:07.671Z,60.37
2022-08-05T11:14:07.761Z,60.37
2022-08-05T11:15:11.519Z,60.57
2022-08-05T11:16:07.917Z,60.57
2022-08-05T11:17:57.253Z,60.44
2022-08-05T11:18:09.821Z,60.34
2022-08-05T11:20:16.742Z,60.44
2022-08-05T11:20:22.574Z,60.64
2022-08-05T11:21:11.734Z,60.64
2022-08-05T11:22:08.416Z,60.64
2022-08-05T11:23:08.917Z,60.54
2022-08-05T11:24:29.863Z,60.83
2022-08-05T11:26:02.908Z,60.54
2022-08-05T11:26:10.872Z,60.21
2022-08-05T11:27:08.791Z,60.02
2022-08-05T11:28:08.896Z,59.72
2022-08-05T11:29:13.385Z,59.62
2022-08-05T11:30:09.043Z,59.72
2022-08-05T11:31:09.129Z,59.62
2022-08-05T11:32:09.208Z,59.52
2022-08-05T11:33:21.008Z,59.42
2022-08-05T11:34:09.372Z,59.22
2022-08-05T11:35:09.457Z,59.32
2022-08-05T11:36:09.548Z,59.32
2022-08-05T11:38:29.526Z,59.32
2022-08-05T11:38:46.069Z,59.52
2022-08-05T11:39:09.938Z,59.52
2022-08-05T11:40:09.891Z,59.42
2022-08-05T11:41:34.350Z,59.32
2022-08-05T11:42:10.045Z,59.52
2022-08-05T11:43:10.131Z,59.72
2022-08-05T11:44:10.262Z,59.72
2022-08-05T11:45:14.485Z,60.02
2022-08-05T11:46:32.503Z,60.61
2022-08-05T11:47:15.223Z,60.71
2022-08-05T11:48:11.582Z,60.31
2022-08-05T11:49:10.651Z,60.51
2022-08-05T11:50:14.362Z,60.51
2022-08-05T11:51:10.948Z,60.41
2022-08-05T11:52:11.620Z,60.31
2022-08-05T11:53:10.939Z,60.31
2022-08-05T11:54:11.039Z,60.31
2022-08-05T11:55:11.120Z,60.11
2022-08-05T11:56:11.282Z,60.02
2022-08-05T11:57:26.069Z,59.92
2022-08-05T11:58:12.174Z,60.21
2022-08-05T11:59:13.691Z,60.19
2022-08-05T12:00:11.604Z,60.02
2022-08-05T12:01:11.625Z,60.08
2022-08-05T12:02:12.110Z,59.89
2022-08-05T12:03:11.828Z,59.69
2022-08-05T12:04:11.889Z,59.49
2022-08-05T12:05:18.024Z,59.49
2022-08-05T12:06:11.993Z,59.59
2022-08-05T12:07:12.071Z,59.59
2022-08-05T12:08:18.148Z,59.59
2022-08-05T12:09:19.798Z,59.69
2022-08-05T12:10:12.400Z,59.79
2022-08-05T12:11:20.355Z,59.79
2022-08-05T12:12:12.433Z,60.28
2022-08-05T12:13:17.368Z,60.28
2022-08-05T12:14:12.572Z,60.25
2022-08-05T12:15:16.642Z,60.35
2022-08-05T12:16:14.786Z,60.25
2022-08-05T12:18:00.695Z,60.06
2022-08-05T12:18:14.843Z,60.16
2022-08-05T12:20:25.400Z,60.06
2022-08-05T12:20:33.213Z,59.86
2022-08-05T12:21:13.104Z,60.13
2022-08-05T12:22:13.177Z,60.13
2022-08-05T12:23:13.265Z,60.32
2022-08-05T12:24:13.352Z,60.42
2022-08-05T12:25:14.227Z,60.72
2022-08-05T12:26:13.495Z,61.41
2022-08-05T12:27:21.622Z,61.71
2022-08-05T12:28:15.677Z,61.61
2022-08-05T12:29:16.327Z,61.31
2022-08-05T12:30:15.459Z,61.11
2022-08-05T12:31:23.203Z,60.72
2022-08-05T12:32:13.950Z,60.22
2022-08-05T12:33:36.088Z,60.13
2022-08-05T12:34:20.663Z,60.13
2022-08-05T12:35:14.206Z,60.52
2022-08-05T12:36:14.268Z,60.32
2022-08-05T12:37:22.803Z,60.30
2022-08-05T12:38:15.178Z,59.80
2022-08-05T12:39:14.578Z,59.70
2022-08-05T12:40:20.885Z,59.90
2022-08-05T12:41:14.698Z,59.90
2022-08-05T12:42:15.342Z,60.10
2022-08-05T12:43:21.025Z,60.10
2022-08-05T12:44:28.530Z,60.19
2022-08-05T12:45:14.999Z,60.30
2022-08-05T12:46:15.087Z,60.19
2022-08-05T12:47:17.067Z,60.30
2022-08-05T12:48:26.776Z,60.10
2022-08-05T12:49:15.341Z,59.90
2022-08-05T12:50:15.414Z,59.41
2022-08-05T12:52:10.642Z,59.20
2022-08-05T12:52:24.025Z,59.50
2022-08-05T12:53:15.688Z,59.77
2022-08-05T12:54:23.164Z,59.28
2022-08-05T12:55:15.845Z,60.07
2022-08-05T12:56:34.156Z,59.67
2022-08-05T12:57:15.966Z,59.58
2022-08-05T12:58:48.634Z,60.07
2022-08-05T12:59:20.825Z,59.77
2022-08-05T13:02:01.081Z,59.77
2022-08-05T13:02:11.091Z,59.87
2022-08-05T13:02:16.523Z,59.64